sensor_id;sensor_type;location;lat;lon;timestamp;P1;durP1;ratioP1;P2;durP2;ratioP2
62941;SDS011;49042;47.318;19.874;2022-08-30T00:01:23;9.80;;;6.80;;
62941;SDS011;49042;47.318;19.874;2022-08-30T00:04:26;8.40;;;6.62;;
62941;SDS011;49042;47.318;19.874;2022-08-30T00:07:28;11.30;;;6.80;;
62941;SDS011;49042;47.318;19.874;2022-08-30T00:10:31;8.70;;;6.78;;
62941;SDS011;49042;47.318;19.874;2022-08-30T00:13:35;10.07;;;7.15;;
62941;SDS011;49042;47.318;19.874;2022-08-30T00:16:37;10.63;;;7.15;;
62941;SDS011;49042;47.318;19.874;2022-08-30T00:19:39;9.52;;;6.75;;
62941;SDS011;49042;47.318;19.874;2022-08-30T00:22:41;10.10;;;7.47;;
62941;SDS011;49042;47.318;19.874;2022-08-30T00:25:43;11.05;;;7.53;;
62941;SDS011;49042;47.318;19.874;2022-08-30T00:28:45;12.07;;;7.10;;
62941;SDS011;49042;47.318;19.874;2022-08-30T00:31:47;14.27;;;7.43;;
62941;SDS011;49042;47.318;19.874;2022-08-30T00:34:49;8.88;;;7.40;;
62941;SDS011;49042;47.318;19.874;2022-08-30T00:37:51;12.48;;;8.00;;
62941;SDS011;49042;47.318;19.874;2022-08-30T00:40:53;14.77;;;8.95;;
62941;SDS011;49042;47.318;19.874;2022-08-30T00:43:55;12.30;;;8.05;;
62941;SDS011;49042;47.318;19.874;2022-08-30T00:46:57;13.62;;;8.63;;
62941;SDS011;49042;47.318;19.874;2022-08-30T00:49:59;15.05;;;8.52;;
62941;SDS011;49042;47.318;19.874;2022-08-30T00:53:03;13.30;;;8.63;;
62941;SDS011;49042;47.318;19.874;2022-08-30T00:56:09;9.93;;;7.47;;
62941;SDS011;49042;47.318;19.874;2022-08-30T00:59:13;10.60;;;8.13;;
62941;SDS011;49042;47.318;19.874;2022-08-30T01:02:17;13.07;;;8.32;;
62941;SDS011;49042;47.318;19.874;2022-08-30T01:05:22;9.30;;;7.23;;
62941;SDS011;49042;47.318;19.874;2022-08-30T01:08:24;11.12;;;7.43;;
62941;SDS011;49042;47.318;19.874;2022-08-30T01:11:27;13.25;;;7.97;;
62941;SDS011;49042;47.318;19.874;2022-08-30T01:14:32;11.10;;;7.37;;
62941;SDS011;49042;47.318;19.874;2022-08-30T01:17:35;10.98;;;8.15;;
62941;SDS011;49042;47.318;19.874;2022-08-30T01:20:42;10.18;;;8.05;;
62941;SDS011;49042;47.318;19.874;2022-08-30T01:23:54;13.38;;;7.85;;
62941;SDS011;49042;47.318;19.874;2022-08-30T01:26:59;14.35;;;8.65;;
62941;SDS011;49042;47.318;19.874;2022-08-30T01:30:01;13.45;;;8.85;;
62941;SDS011;49042;47.318;19.874;2022-08-30T01:33:04;16.87;;;8.68;;
62941;SDS011;49042;47.318;19.874;2022-08-30T01:36:12;14.10;;;9.52;;
62941;SDS011;49042;47.318;19.874;2022-08-30T01:39:16;16.02;;;9.75;;
62941;SDS011;49042;47.318;19.874;2022-08-30T01:42:19;19.52;;;10.05;;
62941;SDS011;49042;47.318;19.874;2022-08-30T01:45:28;15.13;;;9.85;;
62941;SDS011;49042;47.318;19.874;2022-08-30T01:48:30;12.63;;;9.00;;
62941;SDS011;49042;47.318;19.874;2022-08-30T01:51:32;15.60;;;9.45;;
62941;SDS011;49042;47.318;19.874;2022-08-30T01:54:35;12.70;;;8.57;;
62941;SDS011;49042;47.318;19.874;2022-08-30T01:57:40;15.52;;;9.27;;
62941;SDS011;49042;47.318;19.874;2022-08-30T02:00:41;13.48;;;8.32;;
62941;SDS011;49042;47.318;19.874;2022-08-30T02:03:44;13.45;;;9.23;;
62941;SDS011;49042;47.318;19.874;2022-08-30T02:06:46;12.77;;;9.07;;
62941;SDS011;49042;47.318;19.874;2022-08-30T02:09:49;14.80;;;9.30;;
62941;SDS011;49042;47.318;19.874;2022-08-30T02:12:52;11.75;;;8.13;;
62941;SDS011;49042;47.318;19.874;2022-08-30T02:15:53;13.62;;;8.60;;
62941;SDS011;49042;47.318;19.874;2022-08-30T02:18:55;15.80;;;9.35;;
62941;SDS011;49042;47.318;19.874;2022-08-30T02:21:57;12.65;;;8.68;;
62941;SDS011;49042;47.318;19.874;2022-08-30T02:24:59;14.45;;;8.77;;
62941;SDS011;49042;47.318;19.874;2022-08-30T02:28:01;10.48;;;8.38;;
62941;SDS011;49042;47.318;19.874;2022-08-30T02:31:04;10.75;;;7.95;;
62941;SDS011;49042;47.318;19.874;2022-08-30T02:34:06;12.82;;;8.70;;
62941;SDS011;49042;47.318;19.874;2022-08-30T02:37:08;13.62;;;8.45;;
62941;SDS011;49042;47.318;19.874;2022-08-30T02:40:10;9.38;;;8.27;;
62941;SDS011;49042;47.318;19.874;2022-08-30T02:43:12;12.88;;;9.70;;
62941;SDS011;49042;47.318;19.874;2022-08-30T02:46:14;13.00;;;8.05;;
62941;SDS011;49042;47.318;19.874;2022-08-30T02:49:16;13.30;;;8.15;;
62941;SDS011;49042;47.318;19.874;2022-08-30T02:52:35;12.57;;;8.23;;
62941;SDS011;49042;47.318;19.874;2022-08-30T02:55:37;17.17;;;10.55;;
62941;SDS011;49042;47.318;19.874;2022-08-30T02:58:40;18.90;;;11.15;;
62941;SDS011;49042;47.318;19.874;2022-08-30T03:01:43;17.95;;;10.90;;
62941;SDS011;49042;47.318;19.874;2022-08-30T03:04:45;23.50;;;11.18;;
62941;SDS011;49042;47.318;19.874;2022-08-30T03:07:50;22.42;;;11.95;;
62941;SDS011;49042;47.318;19.874;2022-08-30T03:10:52;23.92;;;12.45;;
62941;SDS011;49042;47.318;19.874;2022-08-30T03:13:53;21.75;;;12.45;;
62941;SDS011;49042;47.318;19.874;2022-08-30T03:16:56;24.17;;;11.05;;
62941;SDS011;49042;47.318;19.874;2022-08-30T03:19:58;18.87;;;10.82;;
62941;SDS011;49042;47.318;19.874;2022-08-30T03:23:02;18.10;;;11.18;;
62941;SDS011;49042;47.318;19.874;2022-08-30T03:26:05;17.58;;;8.35;;
62941;SDS011;49042;47.318;19.874;2022-08-30T03:29:08;11.57;;;8.13;;
62941;SDS011;49042;47.318;19.874;2022-08-30T03:32:12;11.23;;;7.87;;
62941;SDS011;49042;47.318;19.874;2022-08-30T03:35:14;14.07;;;8.45;;
62941;SDS011;49042;47.318;19.874;2022-08-30T03:38:17;13.07;;;8.35;;
62941;SDS011;49042;47.318;19.874;2022-08-30T03:41:19;12.77;;;8.02;;
62941;SDS011;49042;47.318;19.874;2022-08-30T03:44:21;15.23;;;7.78;;
62941;SDS011;49042;47.318;19.874;2022-08-30T03:47:23;12.75;;;7.93;;
62941;SDS011;49042;47.318;19.874;2022-08-30T03:50:25;11.43;;;8.25;;
62941;SDS011;49042;47.318;19.874;2022-08-30T03:53:27;24.12;;;8.00;;
62941;SDS011;49042;47.318;19.874;2022-08-30T03:56:29;12.73;;;7.90;;
62941;SDS011;49042;47.318;19.874;2022-08-30T03:59:31;14.48;;;7.75;;
62941;SDS011;49042;47.318;19.874;2022-08-30T04:02:33;10.27;;;8.18;;
62941;SDS011;49042;47.318;19.874;2022-08-30T04:05:35;17.87;;;8.88;;
62941;SDS011;49042;47.318;19.874;2022-08-30T04:08:37;20.48;;;8.82;;
62941;SDS011;49042;47.318;19.874;2022-08-30T04:11:39;12.68;;;8.27;;
62941;SDS011;49042;47.318;19.874;2022-08-30T04:14:41;12.30;;;8.73;;
62941;SDS011;49042;47.318;19.874;2022-08-30T04:17:42;9.73;;;7.57;;
62941;SDS011;49042;47.318;19.874;2022-08-30T04:20:44;10.88;;;7.53;;
62941;SDS011;49042;47.318;19.874;2022-08-30T04:23:47;19.55;;;8.35;;
62941;SDS011;49042;47.318;19.874;2022-08-30T04:26:49;22.37;;;7.93;;
62941;SDS011;49042;47.318;19.874;2022-08-30T04:29:51;13.30;;;8.98;;
62941;SDS011;49042;47.318;19.874;2022-08-30T04:32:56;14.50;;;9.10;;
62941;SDS011;49042;47.318;19.874;2022-08-30T04:36:00;13.35;;;7.37;;
62941;SDS011;49042;47.318;19.874;2022-08-30T04:39:05;15.70;;;8.18;;
62941;SDS011;49042;47.318;19.874;2022-08-30T04:42:07;12.02;;;8.23;;
62941;SDS011;49042;47.318;19.874;2022-08-30T04:45:14;9.15;;;7.35;;
62941;SDS011;49042;47.318;19.874;2022-08-30T04:48:16;15.93;;;7.62;;
62941;SDS011;49042;47.318;19.874;2022-08-30T04:51:18;12.27;;;8.43;;
62941;SDS011;49042;47.318;19.874;2022-08-30T04:54:20;14.63;;;9.90;;
62941;SDS011;49042;47.318;19.874;2022-08-30T04:57:23;18.12;;;7.32;;
62941;SDS011;49042;47.318;19.874;2022-08-30T05:00:25;15.65;;;8.25;;
62941;SDS011;49042;47.318;19.874;2022-08-30T05:03:28;16.08;;;7.62;;
62941;SDS011;49042;47.318;19.874;2022-08-30T05:06:30;11.70;;;7.45;;
62941;SDS011;49042;47.318;19.874;2022-08-30T05:09:32;12.15;;;6.90;;
62941;SDS011;49042;47.318;19.874;2022-08-30T05:12:34;18.85;;;8.07;;
62941;SDS011;49042;47.318;19.874;2022-08-30T05:15:35;11.25;;;7.72;;
62941;SDS011;49042;47.318;19.874;2022-08-30T05:18:38;16.33;;;8.32;;
62941;SDS011;49042;47.318;19.874;2022-08-30T05:21:39;14.65;;;8.00;;
62941;SDS011;49042;47.318;19.874;2022-08-30T05:24:41;19.67;;;7.87;;
62941;SDS011;49042;47.318;19.874;2022-08-30T05:27:43;17.05;;;7.22;;
62941;SDS011;49042;47.318;19.874;2022-08-30T05:30:45;14.45;;;6.90;;
62941;SDS011;49042;47.318;19.874;2022-08-30T05:33:48;15.57;;;7.20;;
62941;SDS011;49042;47.318;19.874;2022-08-30T05:36:51;10.68;;;7.22;;
62941;SDS011;49042;47.318;19.874;2022-08-30T05:39:53;15.38;;;6.72;;
62941;SDS011;49042;47.318;19.874;2022-08-30T05:42:57;10.02;;;6.28;;
62941;SDS011;49042;47.318;19.874;2022-08-30T05:46:00;10.00;;;6.70;;
62941;SDS011;49042;47.318;19.874;2022-08-30T05:49:04;11.23;;;6.70;;
62941;SDS011;49042;47.318;19.874;2022-08-30T05:52:07;22.42;;;7.65;;
62941;SDS011;49042;47.318;19.874;2022-08-30T05:55:09;39.83;;;7.87;;
62941;SDS011;49042;47.318;19.874;2022-08-30T05:58:12;20.33;;;6.12;;
62941;SDS011;49042;47.318;19.874;2022-08-30T06:04:43;17.70;;;6.57;;
62941;SDS011;49042;47.318;19.874;2022-08-30T06:07:45;16.65;;;5.68;;
62941;SDS011;49042;47.318;19.874;2022-08-30T06:10:46;9.75;;;5.20;;
62941;SDS011;49042;47.318;19.874;2022-08-30T06:13:49;14.02;;;5.75;;
62941;SDS011;49042;47.318;19.874;2022-08-30T06:16:51;16.50;;;5.47;;
62941;SDS011;49042;47.318;19.874;2022-08-30T06:19:54;19.17;;;5.05;;
62941;SDS011;49042;47.318;19.874;2022-08-30T06:22:55;11.80;;;4.20;;
62941;SDS011;49042;47.318;19.874;2022-08-30T06:26:02;11.48;;;6.22;;
62941;SDS011;49042;47.318;19.874;2022-08-30T06:29:08;13.48;;;5.00;;
62941;SDS011;49042;47.318;19.874;2022-08-30T06:32:11;7.78;;;3.83;;
62941;SDS011;49042;47.318;19.874;2022-08-30T06:35:13;12.60;;;4.30;;
62941;SDS011;49042;47.318;19.874;2022-08-30T06:38:15;9.13;;;3.97;;
62941;SDS011;49042;47.318;19.874;2022-08-30T06:41:20;10.13;;;3.42;;
62941;SDS011;49042;47.318;19.874;2022-08-30T06:44:23;10.40;;;4.15;;
62941;SDS011;49042;47.318;19.874;2022-08-30T06:47:26;10.43;;;3.90;;
62941;SDS011;49042;47.318;19.874;2022-08-30T06:50:28;8.48;;;3.65;;
62941;SDS011;49042;47.318;19.874;2022-08-30T06:53:33;8.50;;;3.70;;
62941;SDS011;49042;47.318;19.874;2022-08-30T06:56:35;7.53;;;3.62;;
62941;SDS011;49042;47.318;19.874;2022-08-30T06:59:37;11.50;;;3.45;;
62941;SDS011;49042;47.318;19.874;2022-08-30T07:02:40;11.43;;;3.53;;
62941;SDS011;49042;47.318;19.874;2022-08-30T07:05:42;11.18;;;3.83;;
62941;SDS011;49042;47.318;19.874;2022-08-30T07:08:45;5.60;;;3.45;;
62941;SDS011;49042;47.318;19.874;2022-08-30T07:11:49;8.38;;;3.50;;
62941;SDS011;49042;47.318;19.874;2022-08-30T07:14:52;7.45;;;3.53;;
62941;SDS011;49042;47.318;19.874;2022-08-30T07:17:54;7.97;;;3.28;;
62941;SDS011;49042;47.318;19.874;2022-08-30T07:21:14;11.32;;;3.85;;
62941;SDS011;49042;47.318;19.874;2022-08-30T07:24:19;7.80;;;3.28;;
62941;SDS011;49042;47.318;19.874;2022-08-30T07:27:21;7.28;;;3.40;;
62941;SDS011;49042;47.318;19.874;2022-08-30T07:30:23;13.73;;;4.05;;
62941;SDS011;49042;47.318;19.874;2022-08-30T07:33:25;7.15;;;3.25;;
62941;SDS011;49042;47.318;19.874;2022-08-30T07:36:27;5.45;;;3.00;;
62941;SDS011;49042;47.318;19.874;2022-08-30T07:39:29;8.82;;;3.20;;
62941;SDS011;49042;47.318;19.874;2022-08-30T07:42:32;3.92;;;2.58;;
62941;SDS011;49042;47.318;19.874;2022-08-30T07:45:34;7.65;;;2.92;;
62941;SDS011;49042;47.318;19.874;2022-08-30T07:48:37;6.47;;;2.95;;
62941;SDS011;49042;47.318;19.874;2022-08-30T07:51:40;6.35;;;2.85;;
62941;SDS011;49042;47.318;19.874;2022-08-30T07:54:42;6.82;;;3.25;;
62941;SDS011;49042;47.318;19.874;2022-08-30T07:57:45;4.65;;;2.85;;
62941;SDS011;49042;47.318;19.874;2022-08-30T08:00:46;9.77;;;2.92;;
62941;SDS011;49042;47.318;19.874;2022-08-30T08:03:49;7.45;;;2.62;;
62941;SDS011;49042;47.318;19.874;2022-08-30T08:06:51;12.98;;;3.50;;
62941;SDS011;49042;47.318;19.874;2022-08-30T08:09:53;11.02;;;2.55;;
62941;SDS011;49042;47.318;19.874;2022-08-30T08:12:54;11.00;;;3.10;;
62941;SDS011;49042;47.318;19.874;2022-08-30T08:15:56;6.95;;;2.83;;
62941;SDS011;49042;47.318;19.874;2022-08-30T08:18:58;9.88;;;2.70;;
62941;SDS011;49042;47.318;19.874;2022-08-30T08:22:00;4.95;;;2.97;;
62941;SDS011;49042;47.318;19.874;2022-08-30T08:25:21;7.85;;;2.50;;
62941;SDS011;49042;47.318;19.874;2022-08-30T08:28:23;4.25;;;2.35;;
62941;SDS011;49042;47.318;19.874;2022-08-30T08:31:26;7.37;;;2.33;;
62941;SDS011;49042;47.318;19.874;2022-08-30T08:34:34;5.65;;;2.10;;
62941;SDS011;49042;47.318;19.874;2022-08-30T08:37:37;6.00;;;2.30;;
62941;SDS011;49042;47.318;19.874;2022-08-30T08:44:16;7.75;;;2.20;;
62941;SDS011;49042;47.318;19.874;2022-08-30T08:47:40;5.80;;;2.03;;
62941;SDS011;49042;47.318;19.874;2022-08-30T08:50:52;6.18;;;1.85;;
62941;SDS011;49042;47.318;19.874;2022-08-30T08:57:47;3.28;;;1.75;;
62941;SDS011;49042;47.318;19.874;2022-08-30T09:00:50;4.60;;;2.20;;
62941;SDS011;49042;47.318;19.874;2022-08-30T09:03:52;6.12;;;2.08;;
62941;SDS011;49042;47.318;19.874;2022-08-30T09:07:01;3.70;;;2.08;;
62941;SDS011;49042;47.318;19.874;2022-08-30T09:10:18;5.87;;;2.33;;
62941;SDS011;49042;47.318;19.874;2022-08-30T09:13:41;3.33;;;2.03;;
62941;SDS011;49042;47.318;19.874;2022-08-30T09:16:44;5.00;;;2.78;;
62941;SDS011;49042;47.318;19.874;2022-08-30T09:22:54;12.98;;;2.70;;
62941;SDS011;49042;47.318;19.874;2022-08-30T09:25:58;5.35;;;2.40;;
62941;SDS011;49042;47.318;19.874;2022-08-30T09:29:02;11.20;;;2.67;;
62941;SDS011;49042;47.318;19.874;2022-08-30T09:32:06;3.30;;;2.28;;
62941;SDS011;49042;47.318;19.874;2022-08-30T09:39:00;6.57;;;2.08;;
62941;SDS011;49042;47.318;19.874;2022-08-30T09:42:17;4.78;;;2.45;;
62941;SDS011;49042;47.318;19.874;2022-08-30T09:45:27;3.50;;;2.20;;
62941;SDS011;49042;47.318;19.874;2022-08-30T09:48:33;11.55;;;2.47;;
62941;SDS011;49042;47.318;19.874;2022-08-30T09:51:51;5.43;;;2.40;;
62941;SDS011;49042;47.318;19.874;2022-08-30T09:55:02;4.60;;;2.00;;
62941;SDS011;49042;47.318;19.874;2022-08-30T10:01:38;5.57;;;2.15;;
62941;SDS011;49042;47.318;19.874;2022-08-30T10:24:38;7.05;;;2.47;;
62941;SDS011;49042;47.318;19.874;2022-08-30T10:30:55;7.22;;;1.98;;
62941;SDS011;49042;47.318;19.874;2022-08-30T10:34:02;8.48;;;2.30;;
62941;SDS011;49042;47.318;19.874;2022-08-30T10:40:22;5.82;;;2.17;;
62941;SDS011;49042;47.318;19.874;2022-08-30T10:47:31;3.40;;;2.10;;
62941;SDS011;49042;47.318;19.874;2022-08-30T10:50:41;4.60;;;2.10;;
62941;SDS011;49042;47.318;19.874;2022-08-30T10:57:23;8.50;;;2.10;;
62941;SDS011;49042;47.318;19.874;2022-08-30T11:14:48;5.78;;;2.85;;
62941;SDS011;49042;47.318;19.874;2022-08-30T11:17:59;5.35;;;2.25;;
62941;SDS011;49042;47.318;19.874;2022-08-30T11:28:10;6.43;;;2.30;;
62941;SDS011;49042;47.318;19.874;2022-08-30T11:37:46;7.68;;;2.95;;
62941;SDS011;49042;47.318;19.874;2022-08-30T11:44:39;8.32;;;2.78;;
62941;SDS011;49042;47.318;19.874;2022-08-30T11:47:36;6.07;;;2.92;;
62941;SDS011;49042;47.318;19.874;2022-08-30T11:51:01;8.52;;;3.10;;
62941;SDS011;49042;47.318;19.874;2022-08-30T12:01:12;9.05;;;3.03;;
62941;SDS011;49042;47.318;19.874;2022-08-30T12:04:43;4.07;;;2.92;;
62941;SDS011;49042;47.318;19.874;2022-08-30T12:07:54;4.50;;;2.70;;
62941;SDS011;49042;47.318;19.874;2022-08-30T12:11:00;6.78;;;3.25;;
62941;SDS011;49042;47.318;19.874;2022-08-30T12:14:05;9.27;;;3.30;;
62941;SDS011;49042;47.318;19.874;2022-08-30T12:17:12;10.18;;;4.82;;
62941;SDS011;49042;47.318;19.874;2022-08-30T12:20:45;8.50;;;4.12;;
62941;SDS011;49042;47.318;19.874;2022-08-30T12:26:51;6.85;;;3.28;;
62941;SDS011;49042;47.318;19.874;2022-08-30T12:29:57;4.95;;;3.45;;
62941;SDS011;49042;47.318;19.874;2022-08-30T12:33:01;7.10;;;3.70;;
62941;SDS011;49042;47.318;19.874;2022-08-30T12:36:03;12.13;;;4.22;;
62941;SDS011;49042;47.318;19.874;2022-08-30T12:39:07;7.43;;;3.17;;
62941;SDS011;49042;47.318;19.874;2022-08-30T12:42:27;6.20;;;3.25;;
62941;SDS011;49042;47.318;19.874;2022-08-30T12:45:50;6.95;;;3.28;;
62941;SDS011;49042;47.318;19.874;2022-08-30T12:48:54;9.93;;;3.42;;
62941;SDS011;49042;47.318;19.874;2022-08-30T12:52:13;6.15;;;3.05;;
62941;SDS011;49042;47.318;19.874;2022-08-30T13:03:03;9.90;;;4.40;;
62941;SDS011;49042;47.318;19.874;2022-08-30T13:07:22;4.45;;;3.28;;
62941;SDS011;49042;47.318;19.874;2022-08-30T13:10:30;6.30;;;2.92;;
62941;SDS011;49042;47.318;19.874;2022-08-30T13:13:26;5.18;;;2.87;;
62941;SDS011;49042;47.318;19.874;2022-08-30T13:16:35;7.12;;;2.95;;
62941;SDS011;49042;47.318;19.874;2022-08-30T13:19:54;5.85;;;2.72;;
62941;SDS011;49042;47.318;19.874;2022-08-30T13:23:04;7.12;;;2.70;;
62941;SDS011;49042;47.318;19.874;2022-08-30T13:26:09;6.00;;;2.50;;
62941;SDS011;49042;47.318;19.874;2022-08-30T13:29:16;8.25;;;2.95;;
62941;SDS011;49042;47.318;19.874;2022-08-30T13:32:20;8.13;;;3.22;;
62941;SDS011;49042;47.318;19.874;2022-08-30T13:35:22;5.68;;;3.28;;
62941;SDS011;49042;47.318;19.874;2022-08-30T13:38:25;5.93;;;2.62;;
62941;SDS011;49042;47.318;19.874;2022-08-30T13:41:27;7.80;;;2.90;;
62941;SDS011;49042;47.318;19.874;2022-08-30T13:44:34;9.20;;;3.62;;
62941;SDS011;49042;47.318;19.874;2022-08-30T13:47:41;6.43;;;2.45;;
62941;SDS011;49042;47.318;19.874;2022-08-30T13:50:47;4.43;;;2.80;;
62941;SDS011;49042;47.318;19.874;2022-08-30T13:53:48;10.80;;;2.60;;
62941;SDS011;49042;47.318;19.874;2022-08-30T13:56:53;4.78;;;2.60;;
62941;SDS011;49042;47.318;19.874;2022-08-30T13:59:56;18.85;;;3.05;;
62941;SDS011;49042;47.318;19.874;2022-08-30T14:02:58;10.10;;;2.60;;
62941;SDS011;49042;47.318;19.874;2022-08-30T14:06:00;4.78;;;2.83;;
62941;SDS011;49042;47.318;19.874;2022-08-30T14:09:22;7.37;;;2.80;;
62941;SDS011;49042;47.318;19.874;2022-08-30T14:12:25;4.53;;;2.55;;
62941;SDS011;49042;47.318;19.874;2022-08-30T14:15:46;7.20;;;2.90;;
62941;SDS011;49042;47.318;19.874;2022-08-30T14:18:50;5.18;;;2.97;;
62941;SDS011;49042;47.318;19.874;2022-08-30T14:21:52;4.00;;;2.92;;
62941;SDS011;49042;47.318;19.874;2022-08-30T14:24:54;6.00;;;2.80;;
62941;SDS011;49042;47.318;19.874;2022-08-30T14:27:56;8.55;;;3.22;;
62941;SDS011;49042;47.318;19.874;2022-08-30T14:30:58;8.18;;;3.17;;
62941;SDS011;49042;47.318;19.874;2022-08-30T14:34:00;7.15;;;3.10;;
62941;SDS011;49042;47.318;19.874;2022-08-30T14:37:04;6.37;;;3.03;;
62941;SDS011;49042;47.318;19.874;2022-08-30T14:40:09;7.00;;;3.17;;
62941;SDS011;49042;47.318;19.874;2022-08-30T14:43:12;10.23;;;3.28;;
62941;SDS011;49042;47.318;19.874;2022-08-30T14:46:14;10.75;;;3.40;;
62941;SDS011;49042;47.318;19.874;2022-08-30T14:49:16;5.30;;;2.50;;
62941;SDS011;49042;47.318;19.874;2022-08-30T14:52:20;4.57;;;3.00;;
62941;SDS011;49042;47.318;19.874;2022-08-30T14:55:22;5.30;;;2.95;;
62941;SDS011;49042;47.318;19.874;2022-08-30T14:58:24;4.82;;;3.00;;
62941;SDS011;49042;47.318;19.874;2022-08-30T15:01:26;5.07;;;3.17;;
62941;SDS011;49042;47.318;19.874;2022-08-30T15:04:30;5.25;;;3.33;;
62941;SDS011;49042;47.318;19.874;2022-08-30T15:07:31;6.57;;;2.97;;
62941;SDS011;49042;47.318;19.874;2022-08-30T15:10:33;7.95;;;3.58;;
62941;SDS011;49042;47.318;19.874;2022-08-30T15:13:35;5.00;;;2.97;;
62941;SDS011;49042;47.318;19.874;2022-08-30T15:16:38;3.33;;;3.00;;
62941;SDS011;49042;47.318;19.874;2022-08-30T15:19:40;5.45;;;2.80;;
62941;SDS011;49042;47.318;19.874;2022-08-30T15:22:43;5.28;;;3.17;;
62941;SDS011;49042;47.318;19.874;2022-08-30T15:25:46;5.85;;;3.10;;
62941;SDS011;49042;47.318;19.874;2022-08-30T15:28:48;4.37;;;2.90;;
62941;SDS011;49042;47.318;19.874;2022-08-30T15:31:51;6.85;;;3.20;;
62941;SDS011;49042;47.318;19.874;2022-08-30T15:34:53;6.12;;;3.10;;
62941;SDS011;49042;47.318;19.874;2022-08-30T15:37:56;4.37;;;3.15;;
62941;SDS011;49042;47.318;19.874;2022-08-30T15:41:00;4.65;;;2.97;;
62941;SDS011;49042;47.318;19.874;2022-08-30T15:44:04;4.25;;;3.10;;
62941;SDS011;49042;47.318;19.874;2022-08-30T15:47:07;10.07;;;3.60;;
62941;SDS011;49042;47.318;19.874;2022-08-30T15:50:09;5.60;;;3.10;;
62941;SDS011;49042;47.318;19.874;2022-08-30T15:53:11;4.87;;;3.22;;
62941;SDS011;49042;47.318;19.874;2022-08-30T15:56:13;5.43;;;3.05;;
62941;SDS011;49042;47.318;19.874;2022-08-30T15:59:15;5.62;;;3.03;;
62941;SDS011;49042;47.318;19.874;2022-08-30T16:02:19;5.03;;;3.25;;
62941;SDS011;49042;47.318;19.874;2022-08-30T16:05:27;6.57;;;3.20;;
62941;SDS011;49042;47.318;19.874;2022-08-30T16:08:29;10.55;;;3.28;;
62941;SDS011;49042;47.318;19.874;2022-08-30T16:11:31;4.22;;;3.00;;
62941;SDS011;49042;47.318;19.874;2022-08-30T16:14:34;14.95;;;3.42;;
62941;SDS011;49042;47.318;19.874;2022-08-30T16:17:36;7.20;;;3.08;;
62941;SDS011;49042;47.318;19.874;2022-08-30T16:20:40;5.35;;;3.03;;
62941;SDS011;49042;47.318;19.874;2022-08-30T16:23:42;8.32;;;3.47;;
62941;SDS011;49042;47.318;19.874;2022-08-30T16:26:48;3.90;;;3.05;;
62941;SDS011;49042;47.318;19.874;2022-08-30T16:29:50;7.22;;;3.65;;
62941;SDS011;49042;47.318;19.874;2022-08-30T16:32:52;4.95;;;2.65;;
62941;SDS011;49042;47.318;19.874;2022-08-30T16:35:54;4.82;;;3.25;;
62941;SDS011;49042;47.318;19.874;2022-08-30T16:38:57;4.68;;;3.28;;
62941;SDS011;49042;47.318;19.874;2022-08-30T16:41:59;13.45;;;3.00;;
62941;SDS011;49042;47.318;19.874;2022-08-30T16:45:06;4.80;;;3.28;;
62941;SDS011;49042;47.318;19.874;2022-08-30T16:48:11;17.35;;;3.62;;
62941;SDS011;49042;47.318;19.874;2022-08-30T16:51:15;10.25;;;3.50;;
62941;SDS011;49042;47.318;19.874;2022-08-30T16:54:19;4.35;;;3.10;;
62941;SDS011;49042;47.318;19.874;2022-08-30T16:57:21;13.75;;;3.90;;
62941;SDS011;49042;47.318;19.874;2022-08-30T17:00:24;5.75;;;2.83;;
62941;SDS011;49042;47.318;19.874;2022-08-30T17:03:27;13.40;;;3.00;;
62941;SDS011;49042;47.318;19.874;2022-08-30T17:06:30;6.22;;;2.65;;
62941;SDS011;49042;47.318;19.874;2022-08-30T17:09:32;12.52;;;2.67;;
62941;SDS011;49042;47.318;19.874;2022-08-30T17:12:35;7.87;;;3.05;;
62941;SDS011;49042;47.318;19.874;2022-08-30T17:15:37;9.93;;;2.83;;
62941;SDS011;49042;47.318;19.874;2022-08-30T17:18:39;15.10;;;3.40;;
62941;SDS011;49042;47.318;19.874;2022-08-30T17:21:42;7.32;;;3.08;;
62941;SDS011;49042;47.318;19.874;2022-08-30T17:24:45;9.68;;;3.35;;
62941;SDS011;49042;47.318;19.874;2022-08-30T17:27:49;5.35;;;2.95;;
62941;SDS011;49042;47.318;19.874;2022-08-30T17:30:51;6.25;;;2.87;;
62941;SDS011;49042;47.318;19.874;2022-08-30T17:33:53;4.53;;;2.97;;
62941;SDS011;49042;47.318;19.874;2022-08-30T17:37:01;5.57;;;2.62;;
62941;SDS011;49042;47.318;19.874;2022-08-30T17:40:04;13.52;;;3.20;;
62941;SDS011;49042;47.318;19.874;2022-08-30T17:43:14;5.55;;;2.83;;
62941;SDS011;49042;47.318;19.874;2022-08-30T17:46:16;7.53;;;2.90;;
62941;SDS011;49042;47.318;19.874;2022-08-30T17:49:19;8.55;;;3.03;;
62941;SDS011;49042;47.318;19.874;2022-08-30T17:52:21;15.07;;;2.92;;
62941;SDS011;49042;47.318;19.874;2022-08-30T17:55:23;7.75;;;2.83;;
62941;SDS011;49042;47.318;19.874;2022-08-30T17:58:25;5.90;;;2.78;;
62941;SDS011;49042;47.318;19.874;2022-08-30T18:01:27;2.85;;;2.47;;
62941;SDS011;49042;47.318;19.874;2022-08-30T18:04:30;9.32;;;2.97;;
62941;SDS011;49042;47.318;19.874;2022-08-30T18:07:32;7.00;;;2.70;;
62941;SDS011;49042;47.318;19.874;2022-08-30T18:10:34;4.15;;;2.67;;
62941;SDS011;49042;47.318;19.874;2022-08-30T18:13:36;6.05;;;3.20;;
62941;SDS011;49042;47.318;19.874;2022-08-30T18:16:39;6.00;;;3.10;;
62941;SDS011;49042;47.318;19.874;2022-08-30T18:19:54;6.37;;;2.92;;
62941;SDS011;49042;47.318;19.874;2022-08-30T18:22:57;6.55;;;2.90;;
62941;SDS011;49042;47.318;19.874;2022-08-30T18:26:00;5.75;;;3.10;;
62941;SDS011;49042;47.318;19.874;2022-08-30T18:29:03;4.50;;;3.30;;
62941;SDS011;49042;47.318;19.874;2022-08-30T18:32:05;6.35;;;3.10;;
62941;SDS011;49042;47.318;19.874;2022-08-30T18:35:09;7.10;;;3.15;;
62941;SDS011;49042;47.318;19.874;2022-08-30T18:38:11;8.00;;;2.78;;
62941;SDS011;49042;47.318;19.874;2022-08-30T18:41:14;5.62;;;2.70;;
62941;SDS011;49042;47.318;19.874;2022-08-30T18:44:17;5.45;;;2.72;;
62941;SDS011;49042;47.318;19.874;2022-08-30T18:47:28;4.20;;;2.83;;
62941;SDS011;49042;47.318;19.874;2022-08-30T18:50:31;3.85;;;2.30;;
62941;SDS011;49042;47.318;19.874;2022-08-30T18:53:33;11.15;;;3.03;;
62941;SDS011;49042;47.318;19.874;2022-08-30T18:56:35;15.40;;;3.35;;
62941;SDS011;49042;47.318;19.874;2022-08-30T18:59:39;7.97;;;3.55;;
62941;SDS011;49042;47.318;19.874;2022-08-30T19:02:43;7.25;;;3.10;;
62941;SDS011;49042;47.318;19.874;2022-08-30T19:05:46;10.77;;;3.55;;
62941;SDS011;49042;47.318;19.874;2022-08-30T19:08:47;6.37;;;3.28;;
62941;SDS011;49042;47.318;19.874;2022-08-30T19:11:51;4.95;;;3.30;;
62941;SDS011;49042;47.318;19.874;2022-08-30T19:14:53;5.35;;;3.10;;
62941;SDS011;49042;47.318;19.874;2022-08-30T19:17:56;11.05;;;3.28;;
62941;SDS011;49042;47.318;19.874;2022-08-30T19:20:58;8.35;;;3.45;;
62941;SDS011;49042;47.318;19.874;2022-08-30T19:24:01;6.95;;;3.62;;
62941;SDS011;49042;47.318;19.874;2022-08-30T19:27:03;7.07;;;3.60;;
62941;SDS011;49042;47.318;19.874;2022-08-30T19:30:07;5.65;;;3.42;;
62941;SDS011;49042;47.318;19.874;2022-08-30T19:33:11;5.17;;;3.47;;
62941;SDS011;49042;47.318;19.874;2022-08-30T19:36:14;7.00;;;3.95;;
62941;SDS011;49042;47.318;19.874;2022-08-30T19:39:15;6.10;;;3.55;;
62941;SDS011;49042;47.318;19.874;2022-08-30T19:42:17;9.27;;;3.62;;
62941;SDS011;49042;47.318;19.874;2022-08-30T19:45:19;6.45;;;3.62;;
62941;SDS011;49042;47.318;19.874;2022-08-30T19:48:23;10.00;;;4.53;;
62941;SDS011;49042;47.318;19.874;2022-08-30T19:51:33;5.70;;;4.18;;